Time;durP1;ratioP1;P1;durP2;ratioP2;P2;SDS_P1;SDS_P2;PMS_P1;PMS_P2;Temp;Humidity;BMP_temperature;BMP_pressure;BME280_temperature;BME280_humidity;BME280_pressure;Samples;Min_cycle;Max_cycle;Signal;HPM_P1;HPM_P2
2022/04/25 00:01:46;;;;;;;12.30;8.55;;;9.70;99.90;;;;;;5079119;28;20250;-72
2022/04/25 00:04:35;;;;;;;11.93;9.80;;;9.80;99.90;;;;;;5061362;28;20219;-72
2022/04/25 00:07:26;;;;;;;10.70;9.48;;;9.80;99.90;;;;;;5078066;28;20219;-73
2022/04/25 00:10:14;;;;;;;10.93;7.43;;;9.80;99.90;;;;;;5078901;28;20211;-73
2022/04/25 00:13:03;;;;;;;11.05;9.65;;;9.70;99.90;;;;;;5075017;28;20238;-74
2022/04/25 00:15:52;;;;;;;11.52;9.25;;;9.80;99.90;;;;;;5072576;28;20743;-71
2022/04/25 00:18:41;;;;;;;11.27;9.27;;;9.80;99.90;;;;;;5074700;28;20242;-72
2022/04/25 00:21:30;;;;;;;11.18;9.13;;;9.90;99.90;;;;;;5071734;28;20231;-73
2022/04/25 00:24:20;;;;;;;11.27;9.40;;;9.80;99.90;;;;;;5058709;28;20213;-71
2022/04/25 00:27:09;;;;;;;10.20;8.70;;;9.90;99.90;;;;;;5074908;28;20315;-72
2022/04/25 00:29:58;;;;;;;9.77;8.25;;;9.80;99.90;;;;;;5059889;28;20245;-72
2022/04/25 00:32:47;;;;;;;10.48;8.35;;;9.90;99.90;;;;;;5067956;28;20545;-71
2022/04/25 00:35:36;;;;;;;9.57;7.97;;;9.90;99.90;;;;;;5074577;28;20231;-71
2022/04/25 00:38:24;;;;;;;9.43;7.78;;;9.80;99.90;;;;;;5072050;28;20228;-72
2022/04/25 00:41:15;;;;;;;10.77;8.60;;;9.80;99.90;;;;;;5074963;28;20782;-71
2022/04/25 00:44:05;;;;;;;8.38;7.53;;;9.80;99.90;;;;;;5075061;28;20219;-72
2022/04/25 00:46:55;;;;;;;10.27;8.38;;;9.80;99.90;;;;;;5059557;28;20208;-72
2022/04/25 00:49:43;;;;;;;11.18;8.02;;;9.80;99.90;;;;;;5072165;28;20223;-72
2022/04/25 00:52:32;;;;;;;10.57;8.27;;;9.80;99.90;;;;;;5076068;28;20235;-73
2022/04/25 00:55:21;;;;;;;8.73;7.57;;;9.70;99.90;;;;;;5062164;28;20239;-72
2022/04/25 00:58:13;;;;;;;8.98;8.07;;;9.80;99.90;;;;;;5074278;28;20891;-72
2022/04/25 01:01:03;;;;;;;8.95;7.97;;;9.70;99.90;;;;;;5076530;28;20226;-72
2022/04/25 01:03:51;;;;;;;10.25;7.65;;;9.60;99.90;;;;;;5072996;28;20579;-72
2022/04/25 01:06:40;;;;;;;9.95;7.80;;;9.40;99.90;;;;;;5077850;28;20223;-72
2022/04/25 01:09:29;;;;;;;9.57;7.65;;;9.40;99.90;;;;;;5077718;28;20230;-73
2022/04/25 01:12:17;;;;;;;10.68;8.05;;;9.30;99.90;;;;;;5074191;28;20220;-71
2022/04/25 01:15:10;;;;;;;9.55;8.30;;;9.30;99.90;;;;;;5073515;28;20219;-72
2022/04/25 01:17:59;;;;;;;10.85;8.98;;;9.20;99.90;;;;;;5075566;28;20227;-71
2022/04/25 01:20:47;;;;;;;10.13;8.55;;;9.20;99.90;;;;;;5073596;28;20227;-72
2022/04/25 01:29:52;;;;;;;9.10;6.90;;;9.20;99.90;;;;;;5069936;28;20239;-71
2022/04/25 01:32:41;;;;;;;9.63;7.47;;;9.10;99.90;;;;;;5071461;28;20238;-71
2022/04/25 01:35:31;;;;;;;8.93;7.13;;;9.10;99.90;;;;;;5059904;28;20227;-72
2022/04/25 01:38:19;;;;;;;8.68;6.40;;;9.20;99.90;;;;;;5056517;28;20222;-72
2022/04/25 01:41:09;;;;;;;8.67;7.27;;;9.30;99.90;;;;;;5047045;28;20238;-72
2022/04/25 01:43:58;;;;;;;7.28;6.57;;;9.40;99.90;;;;;;5074275;28;20253;-72
2022/04/25 01:46:46;;;;;;;6.90;5.87;;;9.40;99.90;;;;;;5074325;28;20305;-71
2022/04/25 01:49:36;;;;;;;7.63;6.10;;;9.30;99.90;;;;;;5069319;28;20225;-76
2022/04/25 01:52:29;;;;;;;8.00;6.57;;;9.30;99.90;;;;;;5080745;28;20569;-71
2022/04/25 01:55:18;;;;;;;7.10;6.35;;;9.40;99.90;;;;;;5074242;28;20253;-72
2022/04/25 01:58:08;;;;;;;6.28;5.68;;;9.40;99.90;;;;;;5075168;28;20554;-72
2022/04/25 02:00:56;;;;;;;8.43;6.37;;;9.30;99.90;;;;;;5072596;28;20249;-71
2022/04/25 02:03:47;;;;;;;6.28;5.68;;;9.40;99.90;;;;;;5061990;28;20233;-71
2022/04/25 02:06:35;;;;;;;7.50;6.37;;;9.40;99.90;;;;;;5074983;28;20230;-71
2022/04/25 02:09:24;;;;;;;5.80;4.72;;;9.40;99.90;;;;;;5072744;28;20900;-71
2022/04/25 02:12:13;;;;;;;8.77;5.83;;;9.40;99.90;;;;;;5072215;28;20479;-71
2022/04/25 02:15:04;;;;;;;7.32;5.97;;;9.30;99.90;;;;;;5066583;28;20254;-71
2022/04/25 02:17:52;;;;;;;9.03;5.90;;;9.40;99.90;;;;;;5056079;28;20228;-72
2022/04/25 02:20:41;;;;;;;6.95;6.25;;;9.30;99.90;;;;;;5057064;28;20852;-74
2022/04/25 02:23:30;;;;;;;8.40;5.73;;;9.40;99.90;;;;;;5074515;28;20223;-73
2022/04/25 02:26:19;;;;;;;7.10;5.93;;;9.30;99.90;;;;;;5071837;28;20218;-71
2022/04/25 02:29:08;;;;;;;7.10;6.00;;;9.30;99.90;;;;;;5072920;28;20218;-72
2022/04/25 02:31:58;;;;;;;7.03;5.70;;;9.30;99.90;;;;;;5073331;28;20720;-72
2022/04/25 02:34:47;;;;;;;7.75;6.28;;;9.30;99.90;;;;;;5072983;28;20316;-71
2022/04/25 02:37:35;;;;;;;7.20;5.57;;;9.30;99.90;;;;;;5073831;28;20215;-71
2022/04/25 02:40:24;;;;;;;8.63;6.30;;;9.30;99.90;;;;;;5076266;28;20294;-72
2022/04/25 02:43:13;;;;;;;7.40;5.60;;;9.30;99.90;;;;;;5069546;28;20232;-72
2022/04/25 02:46:03;;;;;;;6.50;5.80;;;9.20;99.90;;;;;;5073163;28;20230;-72
2022/04/25 02:48:53;;;;;;;7.67;6.27;;;9.30;99.90;;;;;;5071983;28;20234;-71
2022/04/25 02:51:43;;;;;;;7.00;6.30;;;9.30;99.90;;;;;;5065433;28;20261;-71
2022/04/25 02:54:33;;;;;;;7.75;6.47;;;9.40;99.90;;;;;;5072251;28;20222;-73
2022/04/25 02:57:22;;;;;;;7.30;6.37;;;9.30;99.90;;;;;;5073580;28;20222;-72
2022/04/25 03:00:12;;;;;;;7.87;6.70;;;9.20;99.90;;;;;;5073414;28;20229;-71
2022/04/25 03:03:01;;;;;;;7.30;6.10;;;9.30;99.90;;;;;;5067062;28;20238;-71
2022/04/25 03:05:52;;;;;;;7.43;6.63;;;9.20;99.90;;;;;;5057041;28;20247;-72
2022/04/25 03:08:41;;;;;;;8.60;7.03;;;9.30;99.90;;;;;;5060621;28;20227;-71
2022/04/25 03:11:30;;;;;;;9.38;7.30;;;9.30;99.90;;;;;;5068664;28;20214;-72
2022/04/25 03:14:19;;;;;;;8.30;6.83;;;9.40;99.90;;;;;;5072143;28;20246;-72
2022/04/25 03:17:08;;;;;;;7.50;6.60;;;9.30;99.90;;;;;;5068256;28;20366;-72
2022/04/25 03:19:56;;;;;;;8.07;7.10;;;9.30;99.90;;;;;;5068496;28;20224;-72
2022/04/25 03:22:46;;;;;;;9.70;7.13;;;9.30;99.90;;;;;;5069978;28;20235;-72
2022/04/25 03:25:36;;;;;;;9.03;7.40;;;9.30;99.90;;;;;;5070192;28;20230;-72
2022/04/25 03:28:25;;;;;;;8.83;7.47;;;9.20;99.90;;;;;;5070433;28;20227;-71
2022/04/25 03:31:13;;;;;;;10.20;7.43;;;9.30;99.90;;;;;;5072050;28;20296;-72
2022/04/25 03:34:02;;;;;;;9.77;7.15;;;9.20;99.90;;;;;;5072896;28;20285;-71
2022/04/25 03:36:54;;;;;;;9.47;7.80;;;9.20;99.90;;;;;;5071799;28;20996;-73
2022/04/25 03:39:44;;;;;;;10.93;7.87;;;9.10;99.90;;;;;;5076838;28;20240;-72
2022/04/25 03:42:39;;;;;;;10.17;8.27;;;9.20;99.90;;;;;;5058143;28;20219;-73
2022/04/25 03:45:29;;;;;;;11.73;8.47;;;9.30;99.90;;;;;;5070078;28;20305;-72
2022/04/25 03:48:17;;;;;;;10.77;9.43;;;9.30;99.90;;;;;;5066407;28;20219;-71
2022/04/25 03:51:06;;;;;;;10.33;9.23;;;9.30;99.90;;;;;;5058942;28;20220;-72
2022/04/25 03:53:55;;;;;;;11.15;9.35;;;9.20;99.90;;;;;;5056068;28;20236;-73
2022/04/25 03:59:51;;;;;;;11.20;9.67;;;9.20;99.90;;;;;;5067040;28;20231;-71
2022/04/25 04:02:39;;;;;;;12.27;9.77;;;9.30;99.90;;;;;;5067982;28;20224;-71
2022/04/25 04:05:30;;;;;;;11.20;9.90;;;9.20;99.90;;;;;;5075398;28;20313;-72
2022/04/25 04:08:18;;;;;;;12.07;10.67;;;9.10;99.90;;;;;;5070554;28;20225;-71
2022/04/25 04:11:07;;;;;;;12.37;10.63;;;9.20;99.90;;;;;;5074802;28;20223;-71
2022/04/25 04:13:57;;;;;;;13.53;10.53;;;9.20;99.90;;;;;;5073391;28;20240;-71
2022/04/25 04:16:46;;;;;;;11.67;9.47;;;9.30;99.90;;;;;;5077838;28;20253;-73
2022/04/25 04:19:35;;;;;;;11.93;9.93;;;9.10;99.90;;;;;;5076937;28;20788;-73
2022/04/25 04:22:25;;;;;;;11.33;10.13;;;9.10;99.90;;;;;;5073902;28;20226;-73
2022/04/25 04:25:14;;;;;;;12.93;9.60;;;9.10;99.90;;;;;;5067075;28;20303;-74
2022/04/25 04:28:06;;;;;;;10.47;9.37;;;9.20;99.90;;;;;;5078507;28;20239;-72
2022/04/25 04:30:56;;;;;;;13.73;10.17;;;9.30;99.90;;;;;;5065128;28;20222;-72
2022/04/25 04:33:45;;;;;;;11.83;10.50;;;9.30;99.90;;;;;;5081126;28;20216;-72
2022/04/25 04:36:34;;;;;;;11.50;9.40;;;9.40;99.90;;;;;;5082397;28;20412;-72
2022/04/25 04:39:23;;;;;;;11.07;9.83;;;9.30;99.90;;;;;;5080211;28;20230;-71
2022/04/25 04:42:11;;;;;;;12.70;10.00;;;9.30;99.90;;;;;;5080187;28;20935;-73
2022/04/25 04:45:00;;;;;;;11.20;10.00;;;9.40;99.90;;;;;;5082663;28;20712;-73
2022/04/25 04:47:50;;;;;;;12.27;10.60;;;9.40;99.90;;;;;;5074808;28;20237;-73
2022/04/25 04:50:38;;;;;;;12.27;11.03;;;9.20;99.90;;;;;;5082275;28;20720;-72
2022/04/25 04:53:27;;;;;;;11.80;10.13;;;9.20;99.90;;;;;;5079859;28;20223;-72
2022/04/25 04:56:22;;;;;;;12.03;10.73;;;9.10;99.90;;;;;;5067155;28;20419;-74
2022/04/25 04:59:11;;;;;;;14.43;11.87;;;9.20;99.90;;;;;;5074977;28;20220;-72
2022/04/25 05:01:59;;;;;;;13.77;11.50;;;9.20;99.90;;;;;;5082388;28;20225;-72
2022/04/25 05:04:50;;;;;;;14.10;11.70;;;9.20;99.90;;;;;;5075853;28;20234;-73
2022/04/25 05:07:39;;;;;;;15.37;12.33;;;9.30;99.90;;;;;;5059067;28;20227;-73
2022/04/25 05:10:28;;;;;;;13.27;11.53;;;9.30;99.90;;;;;;5078448;28;20219;-72
2022/04/25 05:13:17;;;;;;;13.30;11.50;;;9.40;99.90;;;;;;5060800;28;20226;-73
2022/04/25 05:16:06;;;;;;;14.93;13.10;;;9.20;99.90;;;;;;5079560;28;20219;-72
2022/04/25 05:18:56;;;;;;;14.53;12.90;;;9.30;99.90;;;;;;5075429;28;20228;-73
2022/04/25 05:21:46;;;;;;;14.87;13.00;;;9.40;99.90;;;;;;5074508;28;20229;-73
2022/04/25 05:24:35;;;;;;;17.13;12.87;;;9.50;99.90;;;;;;5073616;28;20234;-72
2022/04/25 05:27:24;;;;;;;18.30;13.77;;;9.40;99.90;;;;;;5062825;28;20227;-73
2022/04/25 05:30:14;;;;;;;16.00;13.23;;;9.40;99.90;;;;;;5077571;28;20219;-72
2022/04/25 05:33:03;;;;;;;15.67;13.87;;;9.20;99.90;;;;;;5060711;28;20226;-72
2022/04/25 05:35:52;;;;;;;14.63;12.93;;;9.30;99.90;;;;;;5078287;28;20226;-73
2022/04/25 05:38:42;;;;;;;16.40;13.53;;;9.30;99.90;;;;;;5079291;28;20218;-74
2022/04/25 05:41:31;;;;;;;16.20;13.30;;;9.30;99.90;;;;;;5074988;28;20262;-73
2022/04/25 05:44:20;;;;;;;15.07;13.47;;;9.30;99.90;;;;;;5068088;28;20238;-73
2022/04/25 05:47:09;;;;;;;15.37;13.33;;;9.20;99.90;;;;;;5075687;28;20243;-74
2022/04/25 05:53:04;;;;;;;16.17;13.90;;;9.20;99.90;;;;;;5082167;28;20221;-73
2022/04/25 05:55:54;;;;;;;15.27;12.87;;;9.30;99.90;;;;;;5077894;28;20227;-72
2022/04/25 05:58:43;;;;;;;17.23;14.10;;;9.30;99.90;;;;;;5080289;28;20219;-73
2022/04/25 06:01:31;;;;;;;15.10;13.50;;;9.50;99.90;;;;;;5085978;28;20223;-73
2022/04/25 06:04:21;;;;;;;17.63;14.27;;;9.40;99.90;;;;;;5063185;28;20225;-73
2022/04/25 06:07:16;;;;;;;15.80;13.52;;;9.60;99.90;;;;;;5061048;28;20828;-73
2022/04/25 06:10:06;;;;;;;15.87;13.23;;;9.60;99.90;;;;;;5064750;28;20223;-73
2022/04/25 06:13:01;;;;;;;18.70;13.23;;;9.60;99.90;;;;;;5067365;28;20245;-74
2022/04/25 06:15:49;;;;;;;16.77;14.02;;;9.40;99.90;;;;;;5064340;28;20223;-75
2022/04/25 06:18:38;;;;;;;18.30;14.20;;;9.30;99.90;;;;;;5079109;28;20212;-75
2022/04/25 06:21:27;;;;;;;18.15;13.13;;;9.40;99.90;;;;;;5079335;28;20224;-75
2022/04/25 06:24:15;;;;;;;15.85;12.55;;;9.40;99.90;;;;;;5077243;28;20227;-74
2022/04/25 06:27:05;;;;;;;18.00;14.45;;;9.40;99.90;;;;;;5062698;28;20871;-75
2022/04/25 06:29:56;;;;;;;14.95;12.82;;;9.60;99.90;;;;;;5074405;28;20223;-75
2022/04/25 06:32:51;;;;;;;15.53;13.77;;;9.50;99.90;;;;;;5078280;28;20307;-74
2022/04/25 06:35:41;;;;;;;16.38;13.57;;;9.60;99.90;;;;;;5077353;28;20772;-75
2022/04/25 06:38:30;;;;;;;19.27;14.43;;;9.60;99.90;;;;;;5075303;28;20220;-75
2022/04/25 06:41:22;;;;;;;16.90;13.73;;;9.70;99.90;;;;;;5081195;28;20672;-74
2022/04/25 06:44:10;;;;;;;15.93;12.98;;;9.70;99.90;;;;;;5078668;28;20231;-75
2022/04/25 06:47:01;;;;;;;15.40;13.63;;;9.50;99.90;;;;;;5060105;28;20318;-75
2022/04/25 06:49:49;;;;;;;16.98;14.85;;;9.50;99.90;;;;;;5076804;28;20226;-74
2022/04/25 06:52:38;;;;;;;18.67;15.87;;;9.40;99.90;;;;;;5072511;28;20267;-75
2022/04/25 06:55:27;;;;;;;19.13;15.90;;;9.50;99.90;;;;;;5064192;28;20389;-75
2022/04/25 06:58:16;;;;;;;18.03;16.13;;;9.70;99.90;;;;;;5076588;28;20232;-76
2022/04/25 07:01:04;;;;;;;20.13;15.47;;;9.70;99.90;;;;;;5072455;28;20223;-74
2022/04/25 07:03:54;;;;;;;19.38;15.23;;;9.80;99.90;;;;;;5075212;28;20227;-75
2022/04/25 07:06:43;;;;;;;18.50;15.98;;;9.70;99.90;;;;;;5078838;28;20230;-76
2022/04/25 07:09:38;;;;;;;17.40;15.37;;;9.70;99.90;;;;;;5071961;28;20576;-76
2022/04/25 07:12:28;;;;;;;16.90;15.10;;;9.70;99.90;;;;;;5075024;28;20751;-76
2022/04/25 07:15:16;;;;;;;18.73;15.98;;;9.80;99.90;;;;;;5052255;28;20280;-75
2022/04/25 07:18:05;;;;;;;21.83;16.77;;;9.70;99.90;;;;;;5076656;28;20226;-75
2022/04/25 07:20:55;;;;;;;18.50;16.33;;;9.70;99.90;;;;;;5057298;28;20224;-75
2022/04/25 07:29:56;;;;;;;15.05;13.35;;;9.60;99.90;;;;;;5073300;28;20246;-75
2022/04/25 07:32:45;;;;;;;15.93;13.43;;;9.50;99.90;;;;;;5072529;28;20625;-76
2022/04/25 07:35:34;;;;;;;14.77;13.23;;;9.70;99.90;;;;;;5075470;28;20222;-76
2022/04/25 07:38:24;;;;;;;15.07;13.48;;;9.60;99.90;;;;;;5064458;28;20215;-76
2022/04/25 07:41:14;;;;;;;14.65;12.63;;;9.60;99.90;;;;;;5057297;28;20229;-75
2022/04/25 07:44:03;;;;;;;14.00;12.50;;;9.60;99.90;;;;;;5063663;28;20838;-74
2022/04/25 07:46:53;;;;;;;13.32;11.77;;;9.70;99.90;;;;;;5061531;28;20222;-75
2022/04/25 07:49:42;;;;;;;12.80;11.50;;;9.60;99.90;;;;;;5075259;28;20232;-75
2022/04/25 07:52:39;;;;;;;12.25;10.77;;;9.80;99.90;;;;;;5074421;28;20221;-75
2022/04/25 07:55:31;;;;;;;11.50;10.30;;;9.80;99.90;;;;;;5073872;28;20224;-75
2022/04/25 07:58:20;;;;;;;13.13;10.40;;;9.70;99.90;;;;;;5070831;28;20223;-75
2022/04/25 08:01:09;;;;;;;13.15;10.95;;;9.60;99.90;;;;;;5062977;28;20234;-76
2022/04/25 08:03:58;;;;;;;11.25;9.57;;;9.80;99.90;;;;;;5068825;28;20223;-75
2022/04/25 08:06:47;;;;;;;12.85;9.77;;;9.70;99.90;;;;;;5082076;28;20235;-76
2022/04/25 08:09:35;;;;;;;12.10;10.43;;;9.90;99.90;;;;;;5068824;28;20212;-75
2022/04/25 08:18:37;;;;;;;10.98;9.05;;;9.80;99.90;;;;;;5076552;28;20654;-76
2022/04/25 08:21:26;;;;;;;11.27;9.88;;;9.80;99.90;;;;;;5080570;28;20231;-76
2022/04/25 08:24:17;;;;;;;12.02;9.48;;;9.70;99.90;;;;;;5081816;28;20242;-75
2022/04/25 08:27:06;;;;;;;13.63;9.63;;;9.70;99.90;;;;;;5078285;28;20642;-75
2022/04/25 08:29:59;;;;;;;11.18;9.25;;;9.80;99.90;;;;;;5079663;28;20227;-76
2022/04/25 08:32:47;;;;;;;11.60;10.30;;;9.80;99.90;;;;;;5079150;28;20231;-76
2022/04/25 08:35:36;;;;;;;12.18;8.80;;;9.80;99.90;;;;;;5068451;28;20286;-77
2022/04/25 08:38:25;;;;;;;10.27;8.75;;;9.80;99.90;;;;;;5074117;28;20354;-77
2022/04/25 08:41:16;;;;;;;9.88;7.78;;;10.00;99.90;;;;;;5078205;28;20361;-77
2022/04/25 08:44:06;;;;;;;11.52;8.90;;;10.00;99.90;;;;;;5078204;28;20220;-77
2022/04/25 08:46:58;;;;;;;9.27;7.80;;;10.40;99.90;;;;;;5076464;28;20594;-76
2022/04/25 08:49:47;;;;;;;9.70;7.50;;;10.40;99.90;;;;;;5081449;28;20278;-76
2022/04/25 08:52:36;;;;;;;10.27;7.97;;;10.70;99.90;;;;;;5078368;28;20625;-75
2022/04/25 08:55:26;;;;;;;10.68;8.60;;;10.40;99.90;;;;;;5078105;28;20329;-76
2022/04/25 08:58:16;;;;;;;11.20;9.63;;;10.20;99.90;;;;;;5077801;28;20344;-76
2022/04/25 09:01:05;;;;;;;10.55;9.35;;;10.30;99.90;;;;;;5073504;28;20215;-76
2022/04/25 09:03:55;;;;;;;11.25;9.23;;;10.30;99.90;;;;;;5076543;28;20287;-76
2022/04/25 09:06:46;;;;;;;11.23;9.35;;;10.00;99.90;;;;;;5082346;28;20247;-76
2022/04/25 09:09:37;;;;;;;10.80;9.25;;;10.00;99.90;;;;;;5077922;28;20219;-75
2022/04/25 09:12:26;;;;;;;12.73;8.60;;;10.20;99.90;;;;;;5061892;28;20212;-76
2022/04/25 09:15:18;;;;;;;11.57;8.60;;;10.20;99.90;;;;;;5058888;28;20303;-74
2022/04/25 09:18:14;;;;;;;13.20;9.65;;;10.00;99.90;;;;;;5073549;28;20749;-76
2022/04/25 09:21:07;;;;;;;10.07;7.93;;;10.10;99.90;;;;;;5080660;28;20216;-78
2022/04/25 09:23:58;;;;;;;10.35;8.55;;;10.10;99.90;;;;;;5059831;28;20685;-75
2022/04/25 09:26:47;;;;;;;9.32;8.23;;;10.30;99.90;;;;;;5076496;28;20728;-77
2022/04/25 09:29:37;;;;;;;10.45;8.40;;;10.40;99.90;;;;;;5081285;28;20219;-76
2022/04/25 09:32:33;;;;;;;10.73;9.13;;;10.30;99.90;;;;;;5063833;28;20220;-77
2022/04/25 09:35:30;;;;;;;9.95;8.95;;;10.10;99.90;;;;;;5062280;28;20214;-77
2022/04/25 09:38:29;;;;;;;11.45;10.13;;;10.00;99.90;;;;;;5080358;28;20215;-77
2022/04/25 09:41:18;;;;;;;14.25;10.52;;;10.00;99.90;;;;;;5079960;28;20338;-77
2022/04/25 09:44:10;;;;;;;13.45;10.82;;;10.10;99.90;;;;;;5081436;28;20658;-77
2022/04/25 09:46:59;;;;;;;11.57;10.38;;;10.30;99.90;;;;;;5059574;28;20219;-77
2022/04/25 09:49:59;;;;;;;14.25;9.90;;;10.40;99.90;;;;;;5079788;28;20216;-77
2022/04/25 09:52:55;;;;;;;12.57;10.32;;;10.40;99.90;;;;;;5060750;28;20583;-77
2022/04/25 09:55:45;;;;;;;12.15;10.25;;;10.30;99.90;;;;;;5080488;28;20227;-77
2022/04/25 09:58:35;;;;;;;10.45;9.45;;;10.20;99.90;;;;;;5073295;28;20224;-77
2022/04/25 10:01:24;;;;;;;12.30;9.75;;;10.30;99.90;;;;;;5061546;28;20262;-77
2022/04/25 10:04:32;;;;;;;10.68;9.23;;;10.30;99.90;;;;;;5076517;28;20966;-76
2022/04/25 10:07:23;;;;;;;10.18;8.95;;;10.40;99.90;;;;;;5071513;28;20753;-77
2022/04/25 10:10:13;;;;;;;12.32;8.85;;;10.30;99.90;;;;;;5077381;28;20220;-77
2022/04/25 10:13:04;;;;;;;8.93;8.02;;;10.40;99.90;;;;;;5062993;28;20369;-77
2022/04/25 10:15:55;;;;;;;12.18;9.13;;;10.30;99.90;;;;;;5077449;28;20707;-77
2022/04/25 10:18:45;;;;;;;11.23;9.20;;;10.30;99.90;;;;;;5063637;28;20302;-76
2022/04/25 10:21:36;;;;;;;10.65;8.90;;;10.30;99.90;;;;;;5064756;28;20618;-76
2022/04/25 10:24:26;;;;;;;11.70;8.68;;;10.50;99.90;;;;;;5076633;28;20223;-77
2022/04/25 10:27:17;;;;;;;9.85;8.60;;;10.70;99.90;;;;;;5078687;28;20231;-78
2022/04/25 10:30:14;;;;;;;9.77;8.73;;;10.60;99.90;;;;;;5060027;28;20231;-77
2022/04/25 10:33:16;;;;;;;10.13;8.63;;;10.50;99.90;;;;;;5076592;28;20220;-78
2022/04/25 10:36:06;;;;;;;14.80;8.48;;;10.50;99.90;;;;;;5079938;28;21057;-77
2022/04/25 10:39:11;;;;;;;10.00;8.32;;;10.80;99.90;;;;;;5072674;28;20228;-77
2022/04/25 10:45:07;;;;;;;9.60;8.40;;;10.70;99.90;;;;;;5076907;28;20215;-79
2022/04/25 10:47:58;;;;;;;12.52;8.70;;;10.50;99.90;;;;;;5072800;28;20230;-75
2022/04/25 10:51:10;;;;;;;9.15;7.70;;;10.50;99.90;;;;;;5062238;28;20224;-76
2022/04/25 10:54:00;;;;;;;10.43;8.65;;;10.30;99.90;;;;;;5078189;28;20219;-77
2022/04/25 10:57:15;;;;;;;9.65;8.07;;;10.40;99.90;;;;;;5077186;28;20346;-77
2022/04/25 11:00:07;;;;;;;10.88;8.00;;;10.60;99.90;;;;;;5063577;28;20219;-78
2022/04/25 11:03:07;;;;;;;11.75;8.40;;;10.80;99.90;;;;;;5080985;28;20963;-77
2022/04/25 11:05:57;;;;;;;11.05;7.88;;;10.90;99.90;;;;;;5079930;28;20675;-77
2022/04/25 11:08:53;;;;;;;10.32;8.13;;;10.80;99.90;;;;;;5075477;28;20223;-76
2022/04/25 11:11:51;;;;;;;10.65;7.65;;;10.70;99.90;;;;;;5075039;28;20230;-75
2022/04/25 11:14:57;;;;;;;10.32;8.55;;;10.70;99.90;;;;;;5073753;28;20238;-77
2022/04/25 11:18:19;;;;;;;9.18;7.22;;;10.80;99.90;;;;;;5069785;28;20238;-76
2022/04/25 12:16:33;;;;;;;12.35;8.10;;;11.30;99.90;;;;;;5069527;28;20231;-77
2022/04/25 12:19:23;;;;;;;10.75;8.00;;;11.20;99.90;;;;;;5074359;28;20212;-78
2022/04/25 12:22:12;;;;;;;11.07;7.45;;;11.10;99.90;;;;;;5073424;28;20234;-79
2022/04/25 12:25:15;;;;;;;11.77;7.90;;;11.00;99.90;;;;;;5077716;28;20227;-78
2022/04/25 12:28:09;;;;;;;9.93;7.32;;;11.20;99.90;;;;;;5069042;28;20225;-77
2022/04/25 12:30:59;;;;;;;10.77;7.30;;;11.10;99.90;;;;;;5058698;28;20231;-77
2022/04/25 12:33:50;;;;;;;11.15;7.10;;;11.10;99.90;;;;;;5054323;28;20232;-78
2022/04/25 12:36:40;;;;;;;8.05;6.85;;;11.10;99.90;;;;;;5085129;28;20376;-77
2022/04/25 12:39:29;;;;;;;10.93;7.95;;;11.20;99.90;;;;;;5067040;28;20308;-75
2022/04/25 12:42:17;;;;;;;10.40;7.22;;;11.30;99.90;;;;;;5068881;28;20235;-77
2022/04/25 12:45:08;;;;;;;8.35;6.28;;;11.40;99.90;;;;;;5071024;28;20223;-78
2022/04/25 12:47:58;;;;;;;12.27;7.63;;;11.50;99.90;;;;;;5069043;28;20249;-77
2022/04/25 12:50:47;;;;;;;8.70;7.22;;;11.40;99.90;;;;;;5073000;28;20216;-78
2022/04/25 12:53:40;;;;;;;8.98;6.70;;;11.50;99.90;;;;;;5075295;28;20303;-80
2022/04/25 12:56:31;;;;;;;8.63;6.57;;;11.30;99.90;;;;;;5073918;28;20279;-76
2022/04/25 12:59:27;;;;;;;9.00;6.32;;;11.20;99.90;;;;;;5072937;28;20223;-76
2022/04/25 13:02:19;;;;;;;6.72;5.25;;;11.40;99.90;;;;;;5071160;28;20318;-76
2022/04/25 13:05:09;;;;;;;7.25;5.55;;;11.20;99.90;;;;;;5072258;28;20216;-76
2022/04/25 13:07:58;;;;;;;9.27;5.60;;;11.30;99.90;;;;;;5069624;28;20234;-75
2022/04/25 13:10:47;;;;;;;8.52;5.50;;;11.40;99.90;;;;;;5068693;28;20619;-76
2022/04/25 13:13:35;;;;;;;8.70;5.60;;;11.40;99.90;;;;;;5071693;28;20289;-74
2022/04/25 13:16:24;;;;;;;7.88;5.35;;;11.50;99.90;;;;;;5080525;28;20257;-76
2022/04/25 13:19:14;;;;;;;8.55;5.28;;;11.70;99.90;;;;;;5068093;28;20231;-76
2022/04/25 13:22:03;;;;;;;9.27;5.40;;;11.80;99.90;;;;;;5060424;28;20313;-76
2022/04/25 13:24:57;;;;;;;7.82;5.30;;;11.90;99.90;;;;;;5056126;28;20237;-74
2022/04/25 13:27:46;;;;;;;6.85;5.22;;;11.90;99.90;;;;;;5060264;28;20217;-75
2022/04/25 13:30:35;;;;;;;6.88;5.47;;;11.80;99.90;;;;;;5074034;28;20236;-74
2022/04/25 13:33:24;;;;;;;6.93;5.50;;;11.90;99.90;;;;;;5076589;28;20921;-75
2022/04/25 13:36:15;;;;;;;8.18;6.00;;;11.80;99.90;;;;;;5078384;28;20223;-75
2022/04/25 13:39:04;;;;;;;10.40;5.68;;;11.60;99.90;;;;;;5082343;28;20211;-74
2022/04/25 13:41:53;;;;;;;8.07;5.28;;;11.60;99.90;;;;;;5067488;28;20220;-75
2022/04/25 13:44:42;;;;;;;9.05;4.90;;;11.70;99.90;;;;;;5079075;28;20227;-74
2022/04/25 13:47:31;;;;;;;10.88;5.80;;;11.60;99.90;;;;;;5083012;28;20296;-74
2022/04/25 13:50:19;;;;;;;6.63;4.80;;;11.70;99.90;;;;;;5067256;28;20228;-75
2022/04/25 13:53:10;;;;;;;8.63;5.18;;;11.70;99.90;;;;;;5074574;28;20220;-74
2022/04/25 13:56:00;;;;;;;8.98;4.78;;;11.90;99.90;;;;;;5075836;28;20315;-75
2022/04/25 13:58:49;;;;;;;8.90;5.00;;;11.80;99.90;;;;;;5065816;28;20729;-74
2022/04/25 14:01:38;;;;;;;6.15;4.82;;;11.90;99.90;;;;;;5065830;28;20220;-75
2022/04/25 14:04:27;;;;;;;7.53;4.97;;;11.80;99.90;;;;;;5080445;28;21007;-75
2022/04/25 14:07:16;;;;;;;6.18;4.90;;;11.60;99.90;;;;;;5061391;28;20277;-75
2022/04/25 14:10:08;;;;;;;7.82;5.15;;;11.60;99.90;;;;;;5076867;28;20228;-76
2022/04/25 14:12:56;;;;;;;5.95;4.97;;;11.70;99.90;;;;;;5081522;28;20586;-74
2022/04/25 14:15:45;;;;;;;8.20;4.90;;;11.80;99.90;;;;;;5079338;28;20227;-75
2022/04/25 14:18:34;;;;;;;7.55;5.00;;;11.60;99.90;;;;;;5079022;28;20664;-75
2022/04/25 14:21:23;;;;;;;6.13;5.13;;;11.60;99.90;;;;;;5073637;28;20212;-75
2022/04/25 14:24:12;;;;;;;7.10;5.43;;;11.60;99.90;;;;;;5061243;28;20216;-75
2022/04/25 14:27:02;;;;;;;6.38;5.22;;;11.60;99.90;;;;;;5045074;28;20854;-76
2022/04/25 14:29:51;;;;;;;9.23;5.80;;;11.70;99.90;;;;;;5060150;28;20232;-75
2022/04/25 14:32:40;;;;;;;7.43;5.47;;;11.70;99.90;;;;;;5065566;28;20231;-74
2022/04/25 14:35:28;;;;;;;7.30;5.50;;;11.70;99.90;;;;;;5082307;28;20239;-74
2022/04/25 14:38:22;;;;;;;11.55;5.88;;;11.70;99.90;;;;;;5075385;28;20211;-74
2022/04/25 14:41:11;;;;;;;7.90;6.10;;;11.70;99.90;;;;;;5078409;28;20243;-74
2022/04/25 14:44:01;;;;;;;7.75;5.60;;;11.60;99.90;;;;;;5075680;28;20223;-75
2022/04/25 14:46:49;;;;;;;7.80;5.80;;;11.90;99.90;;;;;;5059403;28;20224;-76
2022/04/25 14:55:51;;;;;;;9.60;5.95;;;11.90;99.90;;;;;;5073840;28;20666;-76
2022/04/25 14:58:40;;;;;;;7.28;6.10;;;12.00;99.90;;;;;;5075037;28;20606;-74
2022/04/25 15:01:30;;;;;;;8.70;7.00;;;12.00;99.90;;;;;;5082303;28;20223;-75
2022/04/25 15:04:20;;;;;;;6.60;5.57;;;12.10;99.90;;;;;;5082183;28;20228;-76
2022/04/25 15:07:09;;;;;;;8.65;6.38;;;12.00;99.90;;;;;;5078007;28;20243;-74
2022/04/25 15:09:58;;;;;;;8.75;6.10;;;12.00;99.90;;;;;;5074093;28;20227;-73
2022/04/25 15:12:47;;;;;;;8.15;6.50;;;12.00;99.90;;;;;;5077818;28;20216;-75
2022/04/25 15:15:37;;;;;;;10.00;7.25;;;11.80;99.90;;;;;;5081943;28;20216;-73
2022/04/25 15:18:26;;;;;;;9.27;6.93;;;11.90;99.90;;;;;;5075414;28;20212;-73
2022/04/25 15:21:15;;;;;;;10.55;7.63;;;11.80;99.90;;;;;;5073632;28;20884;-74
2022/04/25 15:24:09;;;;;;;9.32;7.35;;;11.70;99.90;;;;;;5061347;28;20766;-73
2022/04/25 15:26:58;;;;;;;11.18;8.63;;;11.70;99.90;;;;;;5075996;28;20734;-78
2022/04/25 15:29:52;;;;;;;13.23;9.25;;;11.80;99.90;;;;;;5081493;28;20324;-77
2022/04/25 15:32:40;;;;;;;10.30;8.82;;;11.70;99.90;;;;;;5074621;28;20207;-76
2022/04/25 15:35:30;;;;;;;13.43;10.43;;;11.70;99.90;;;;;;5072902;28;20213;-76
2022/04/25 15:38:19;;;;;;;14.50;11.35;;;11.70;99.90;;;;;;5077485;28;20551;-76
2022/04/25 15:41:08;;;;;;;14.32;10.45;;;11.70;99.90;;;;;;5075618;28;20244;-77
2022/04/25 15:43:56;;;;;;;13.18;11.02;;;11.50;99.90;;;;;;5077629;28;20219;-78
2022/04/25 15:46:45;;;;;;;14.75;11.25;;;11.60;99.90;;;;;;5076491;28;20234;-75
2022/04/25 15:49:34;;;;;;;14.50;10.80;;;11.40;99.90;;;;;;5075042;28;20224;-77
2022/04/25 15:52:24;;;;;;;13.98;11.15;;;11.50;99.90;;;;;;5080889;28;20228;-77
2022/04/25 15:58:19;;;;;;;11.00;9.77;;;11.50;99.90;;;;;;5059626;28;20223;-75
2022/04/25 16:01:08;;;;;;;12.88;10.18;;;11.30;99.90;;;;;;5075447;28;20276;-76
2022/04/25 16:03:57;;;;;;;14.90;11.20;;;11.40;99.90;;;;;;5076774;28;20230;-77
2022/04/25 16:06:47;;;;;;;12.32;9.77;;;11.30;99.90;;;;;;5065646;28;20219;-77
2022/04/25 16:09:37;;;;;;;11.57;8.57;;;11.40;99.90;;;;;;5078784;28;20254;-77
2022/04/25 16:12:26;;;;;;;10.40;9.30;;;11.30;99.90;;;;;;5062493;28;20243;-77
2022/04/25 16:15:16;;;;;;;10.98;9.15;;;11.30;99.90;;;;;;5063883;28;20216;-75